createdAt,value
2017-06-28T00:00:24.665Z,989.54
2017-06-28T00:01:05.938Z,989.51
2017-06-28T00:01:46.473Z,989.47
2017-06-28T00:02:26.966Z,989.5
2017-06-28T00:03:07.462Z,989.52
2017-06-28T00:03:47.950Z,989.51
2017-06-28T00:04:28.428Z,989.57
2017-06-28T00:05:08.933Z,989.54
2017-06-28T00:05:49.429Z,989.57
2017-06-28T00:06:29.918Z,989.56
2017-06-28T00:07:10.411Z,989.58
2017-06-28T00:07:50.906Z,989.61
2017-06-28T00:08:31.393Z,989.59
2017-06-28T00:09:11.895Z,989.63
2017-06-28T00:09:52.412Z,989.64
2017-06-28T00:10:32.878Z,989.64
2017-06-28T00:11:13.375Z,989.63
2017-06-28T00:11:53.861Z,989.66
2017-06-28T00:12:34.348Z,989.68
2017-06-28T00:13:14.841Z,989.65
2017-06-28T00:13:55.329Z,989.66
2017-06-28T00:14:35.800Z,989.69
2017-06-28T00:15:16.286Z,989.65
2017-06-28T00:15:56.770Z,989.73
2017-06-28T00:16:37.255Z,989.71
2017-06-28T00:17:17.748Z,989.71
2017-06-28T00:17:58.200Z,989.68
2017-06-28T00:18:38.693Z,989.65
2017-06-28T00:19:19.185Z,989.64
2017-06-28T00:19:59.670Z,989.64
2017-06-28T00:20:40.675Z,989.64
2017-06-28T00:21:21.170Z,989.61
2017-06-28T00:22:01.656Z,989.6
2017-06-28T00:22:42.156Z,989.63
2017-06-28T00:23:22.645Z,989.61
2017-06-28T00:24:03.141Z,989.65
2017-06-28T00:24:43.630Z,989.61
2017-06-28T00:25:24.131Z,989.6
2017-06-28T00:26:04.629Z,989.63
2017-06-28T00:26:45.133Z,989.64
2017-06-28T00:27:25.627Z,989.62
2017-06-28T00:28:06.119Z,989.61
2017-06-28T00:28:46.617Z,989.56
2017-06-28T00:29:27.109Z,989.56
2017-06-28T00:30:07.594Z,989.53
2017-06-28T00:30:48.089Z,989.55
2017-06-28T00:31:28.564Z,989.54
2017-06-28T00:32:09.043Z,989.55
2017-06-28T00:32:49.496Z,989.53
2017-06-28T00:33:29.954Z,989.53
2017-06-28T00:34:10.425Z,989.5
2017-06-28T00:34:51.845Z,989.45
2017-06-28T00:36:49.461Z,989.42
2017-06-28T00:37:29.944Z,989.4
2017-06-28T00:38:10.429Z,989.38
2017-06-28T00:38:50.934Z,989.37
2017-06-28T00:39:31.415Z,989.34
2017-06-28T00:40:11.913Z,989.3
2017-06-28T00:40:52.385Z,989.28
2017-06-28T00:41:32.893Z,989.27
2017-06-28T00:42:13.367Z,989.25
2017-06-28T00:42:53.828Z,989.26
2017-06-28T00:43:34.284Z,989.25
2017-06-28T00:44:14.715Z,989.25
2017-06-28T00:44:55.191Z,989.28
2017-06-28T00:45:35.676Z,989.26
2017-06-28T00:46:16.172Z,989.31
2017-06-28T00:46:56.663Z,989.31
2017-06-28T00:47:37.166Z,989.33
2017-06-28T00:48:18.534Z,989.33
2017-06-28T00:48:59.029Z,989.34
2017-06-28T00:49:39.520Z,989.34
2017-06-28T00:50:20.020Z,989.35
2017-06-28T00:51:00.511Z,989.4
2017-06-28T00:51:41.000Z,989.4
2017-06-28T00:53:38.623Z,989.53
2017-06-28T00:54:19.126Z,989.55
2017-06-28T00:54:59.613Z,989.64
2017-06-28T00:55:40.101Z,989.79
2017-06-28T00:56:20.589Z,989.94
2017-06-28T00:57:01.077Z,990.13
2017-06-28T00:57:42.335Z,990.24
2017-06-28T00:58:22.832Z,990.38
2017-06-28T00:59:03.313Z,990.36
2017-06-28T00:59:43.816Z,990.25
2017-06-28T01:00:24.310Z,990.46
2017-06-28T01:01:04.835Z,990.5
2017-06-28T01:01:45.315Z,990.48
2017-06-28T01:02:25.786Z,990.54
2017-06-28T01:03:06.277Z,990.48
2017-06-28T01:03:46.788Z,990.57
2017-06-28T01:04:27.268Z,990.49
2017-06-28T01:05:07.757Z,990.39
2017-06-28T01:05:48.221Z,990.45
2017-06-28T01:06:28.681Z,990.51
2017-06-28T01:07:09.179Z,990.44
2017-06-28T01:07:49.658Z,990.4
2017-06-28T01:08:30.147Z,990.39
2017-06-28T01:09:10.652Z,990.44
2017-06-28T01:09:51.163Z,990.32
2017-06-28T01:10:31.646Z,990.44
2017-06-28T01:11:12.141Z,990.29
2017-06-28T01:11:52.623Z,990.31
2017-06-28T01:12:33.109Z,990.31
2017-06-28T01:13:13.518Z,990.32
2017-06-28T01:13:53.994Z,990.42
2017-06-28T01:14:34.524Z,990.41
2017-06-28T01:15:15.014Z,990.42
2017-06-28T01:15:55.517Z,990.34
2017-06-28T01:16:36.004Z,990.29
2017-06-28T01:17:16.488Z,990.53
2017-06-28T01:17:56.989Z,990.34
2017-06-28T01:18:37.482Z,990.34
2017-06-28T01:19:17.975Z,990.38
2017-06-28T01:19:58.473Z,990.3
2017-06-28T01:20:38.957Z,990.24
2017-06-28T01:21:19.449Z,990.23
2017-06-28T01:21:59.947Z,990.21
2017-06-28T01:22:40.434Z,990.25
2017-06-28T01:23:20.932Z,990.26
2017-06-28T01:24:01.408Z,990.3
2017-06-28T01:24:41.909Z,990.17
2017-06-28T01:25:22.394Z,990.17
2017-06-28T01:26:02.904Z,990.12
2017-06-28T01:26:43.390Z,990.16
2017-06-28T01:27:23.884Z,990.09
2017-06-28T01:28:04.369Z,990.07
2017-06-28T01:28:44.864Z,989.98
2017-06-28T01:29:25.353Z,990.03
2017-06-28T01:30:05.852Z,989.97
2017-06-28T01:30:46.342Z,990.01
2017-06-28T01:31:26.833Z,989.92
2017-06-28T01:32:07.332Z,990.03
2017-06-28T01:32:47.807Z,989.95
2017-06-28T01:35:05.625Z,989.83
2017-06-28T01:35:46.120Z,989.88
2017-06-28T01:36:26.612Z,989.93
2017-06-28T01:37:07.102Z,989.92
2017-06-28T01:37:47.617Z,989.95
2017-06-28T01:38:28.096Z,989.98
2017-06-28T01:39:08.596Z,989.99
2017-06-28T01:39:49.067Z,989.99
2017-06-28T01:40:29.552Z,989.96
2017-06-28T01:41:10.045Z,990.04
2017-06-28T01:41:50.539Z,990.08
2017-06-28T01:42:31.035Z,989.97
2017-06-28T01:43:11.527Z,990.09
2017-06-28T01:43:52.013Z,989.95
2017-06-28T01:44:32.507Z,989.99
2017-06-28T01:47:00.740Z,989.98
2017-06-28T01:47:41.164Z,989.92
2017-06-28T01:48:21.687Z,989.88
2017-06-28T01:50:15.055Z,989.86
2017-06-28T01:50:55.428Z,989.8
2017-06-28T01:51:36.818Z,989.78
2017-06-28T01:52:17.942Z,989.93
2017-06-28T01:52:58.404Z,989.85
2017-06-28T01:54:56.428Z,989.73
2017-06-28T01:55:36.826Z,989.74
2017-06-28T01:58:04.801Z,989.72
2017-06-28T01:58:45.243Z,989.72
2017-06-28T01:59:25.700Z,989.7
2017-06-28T02:00:06.156Z,989.7
2017-06-28T02:00:46.594Z,989.65
2017-06-28T02:01:27.046Z,989.69
2017-06-28T02:02:07.525Z,989.67
2017-06-28T02:02:47.966Z,989.66
2017-06-28T02:03:28.415Z,989.71
2017-06-28T02:04:08.856Z,989.66
2017-06-28T02:04:49.309Z,989.68
2017-06-28T02:05:29.763Z,989.66
2017-06-28T02:06:10.205Z,989.63
2017-06-28T02:06:50.653Z,989.57
2017-06-28T02:07:31.096Z,989.59
2017-06-28T02:08:11.596Z,989.62
2017-06-28T02:08:51.988Z,989.58
2017-06-28T02:09:32.455Z,989.58
2017-06-28T02:10:12.902Z,989.56
2017-06-28T02:10:53.392Z,989.52
2017-06-28T02:11:33.819Z,989.48
2017-06-28T02:12:14.325Z,989.47
2017-06-28T02:12:54.731Z,989.43
2017-06-28T02:13:35.200Z,989.41
2017-06-28T02:14:15.665Z,989.42
2017-06-28T02:14:56.134Z,989.41
2017-06-28T02:15:36.629Z,989.37
2017-06-28T02:16:17.019Z,989.37
2017-06-28T02:16:57.466Z,989.33
2017-06-28T02:17:37.965Z,989.36
2017-06-28T02:18:18.420Z,989.38
2017-06-28T02:18:58.859Z,989.45
2017-06-28T02:19:39.343Z,989.56
2017-06-28T02:22:07.332Z,989.66
2017-06-28T02:22:47.802Z,989.65
2017-06-28T02:23:28.308Z,989.63
2017-06-28T02:24:08.758Z,989.69
2017-06-28T02:24:49.255Z,989.67
2017-06-28T02:25:29.727Z,989.65
2017-06-28T02:26:10.228Z,989.61
2017-06-28T02:26:50.724Z,989.59
2017-06-28T02:27:31.203Z,989.61
2017-06-28T02:28:11.685Z,989.58
2017-06-28T02:28:52.178Z,989.58
2017-06-28T02:29:32.664Z,989.58
2017-06-28T02:30:13.147Z,989.59
2017-06-28T02:30:53.648Z,989.58
2017-06-28T02:31:34.135Z,989.54
2017-06-28T02:32:14.623Z,989.56
2017-06-28T02:32:55.102Z,989.55
2017-06-28T02:33:35.565Z,989.56
2017-06-28T02:34:15.972Z,989.55
2017-06-28T02:36:09.348Z,989.52
2017-06-28T02:36:49.790Z,989.55
2017-06-28T02:37:30.231Z,989.57
2017-06-28T02:38:10.723Z,989.65
2017-06-28T02:38:51.150Z,989.68
2017-06-28T02:39:31.615Z,989.68
2017-06-28T02:40:12.026Z,989.77
2017-06-28T02:42:05.192Z,989.65
2017-06-28T02:42:45.546Z,989.63
2017-06-28T02:43:25.987Z,989.7
2017-06-28T02:44:06.470Z,989.73
2017-06-28T02:44:46.932Z,989.68
2017-06-28T02:45:27.374Z,989.66
2017-06-28T02:47:41.020Z,989.52
2017-06-28T02:48:21.412Z,989.55
2017-06-28T02:49:01.884Z,989.53
2017-06-28T02:49:42.358Z,989.47
2017-06-28T02:50:22.765Z,989.47
2017-06-28T02:52:15.761Z,989.45
2017-06-28T02:52:56.158Z,989.4
2017-06-28T02:55:09.949Z,989.35
2017-06-28T02:55:50.295Z,989.35
2017-06-28T02:56:30.653Z,989.3
2017-06-28T02:57:11.146Z,989.29
2017-06-28T02:57:51.647Z,989.3
2017-06-28T02:58:32.072Z,989.28
2017-06-28T02:59:12.510Z,989.28
2017-06-28T02:59:52.971Z,989.24
2017-06-28T03:00:33.394Z,989.26
2017-06-28T03:01:13.898Z,989.19
2017-06-28T03:01:54.350Z,989.24
2017-06-28T03:02:34.829Z,989.23
2017-06-28T03:03:15.340Z,989.21
2017-06-28T03:03:55.892Z,989.19
2017-06-28T03:04:36.386Z,989.16
2017-06-28T03:05:16.803Z,989.18
2017-06-28T03:05:57.298Z,989.17
2017-06-28T03:06:37.770Z,989.11
2017-06-28T03:07:18.227Z,989.13
2017-06-28T03:07:58.670Z,989.1
2017-06-28T03:08:39.152Z,989.08
2017-06-28T03:09:19.600Z,989.05
2017-06-28T03:10:00.134Z,989.06
2017-06-28T03:10:40.563Z,989.02
2017-06-28T03:11:20.950Z,989
2017-06-28T03:12:01.421Z,989.01
2017-06-28T03:12:41.916Z,988.98
2017-06-28T03:13:22.396Z,989.03
2017-06-28T03:14:02.844Z,988.94
2017-06-28T03:14:43.274Z,988.97
2017-06-28T03:15:23.964Z,988.98
2017-06-28T03:16:04.436Z,988.97
2017-06-28T03:16:44.882Z,988.97
2017-06-28T03:17:25.298Z,989.01
2017-06-28T03:18:05.740Z,989.04
2017-06-28T03:18:46.255Z,989.03
2017-06-28T03:19:26.657Z,989
2017-06-28T03:20:07.146Z,989
2017-06-28T03:20:47.570Z,988.99
2017-06-28T03:21:28.046Z,988.95
2017-06-28T03:22:08.442Z,988.94
2017-06-28T03:22:48.907Z,988.96
2017-06-28T03:23:29.352Z,988.9
2017-06-28T03:24:09.867Z,988.93
2017-06-28T03:24:50.395Z,988.91
2017-06-28T03:25:30.997Z,988.96
2017-06-28T03:26:11.259Z,989.02
2017-06-28T03:26:51.770Z,989.04
2017-06-28T03:27:32.141Z,989.11
2017-06-28T03:28:12.636Z,989.11
2017-06-28T03:28:53.054Z,989.08
2017-06-28T03:29:33.525Z,989.15
2017-06-28T03:30:13.911Z,989.12
2017-06-28T03:30:54.459Z,989.16
2017-06-28T03:31:34.827Z,989.16
2017-06-28T03:32:15.326Z,989.18
2017-06-28T03:32:55.796Z,989.19
2017-06-28T03:33:36.289Z,989.2
2017-06-28T03:34:16.730Z,989.22
2017-06-28T03:34:57.286Z,989.22
2017-06-28T03:35:37.715Z,989.22
2017-06-28T03:36:18.183Z,989.21
2017-06-28T03:36:58.632Z,989.25
2017-06-28T03:37:39.116Z,989.24
2017-06-28T03:38:19.507Z,989.26
2017-06-28T03:39:00.036Z,989.29
2017-06-28T03:39:40.483Z,989.32
2017-06-28T03:40:20.967Z,989.31
2017-06-28T03:42:38.861Z,989.27
2017-06-28T03:43:19.356Z,989.3
2017-06-28T03:43:59.838Z,989.29
2017-06-28T03:44:40.320Z,989.32
2017-06-28T03:45:20.818Z,989.31
2017-06-28T03:46:01.306Z,989.31
2017-06-28T03:46:41.795Z,989.33
2017-06-28T03:47:22.295Z,989.33
2017-06-28T03:48:02.811Z,989.33
2017-06-28T03:48:43.300Z,989.34
2017-06-28T03:49:23.833Z,989.37
2017-06-28T03:50:04.324Z,989.38
2017-06-28T03:50:44.857Z,989.37
2017-06-28T03:51:25.313Z,989.41
2017-06-28T03:52:05.797Z,989.38
2017-06-28T03:52:46.270Z,989.39
2017-06-28T03:53:26.754Z,989.43
2017-06-28T03:54:07.243Z,989.41
2017-06-28T03:54:47.726Z,989.4
2017-06-28T03:55:28.230Z,989.44
2017-06-28T03:56:08.743Z,989.46
2017-06-28T03:56:49.210Z,989.46
2017-06-28T03:57:29.682Z,989.47
2017-06-28T03:58:10.137Z,989.44
2017-06-28T03:58:50.580Z,989.47
2017-06-28T03:59:31.023Z,989.46
2017-06-28T04:00:11.461Z,989.5
2017-06-28T04:02:09.065Z,989.49
2017-06-28T04:02:49.545Z,989.52
2017-06-28T04:03:30.047Z,989.5
2017-06-28T04:04:10.538Z,989.55
2017-06-28T04:04:51.034Z,989.55
2017-06-28T04:05:31.524Z,989.56
2017-06-28T04:06:12.014Z,989.58
2017-06-28T04:06:52.514Z,989.55
2017-06-28T04:07:32.996Z,989.54
2017-06-28T04:08:13.492Z,989.57
2017-06-28T04:08:53.991Z,989.54
2017-06-28T04:09:34.491Z,989.58
2017-06-28T04:10:14.966Z,989.58
2017-06-28T04:10:55.427Z,989.64
2017-06-28T04:11:35.928Z,989.6
2017-06-28T04:12:16.411Z,989.65
2017-06-28T04:12:56.898Z,989.66
2017-06-28T04:13:37.389Z,989.62
2017-06-28T04:14:17.881Z,989.61
2017-06-28T04:14:58.376Z,989.69
2017-06-28T04:15:38.866Z,989.61
2017-06-28T04:16:19.351Z,989.64
2017-06-28T04:16:59.808Z,989.64
2017-06-28T04:17:40.276Z,989.65
2017-06-28T04:18:20.732Z,989.68
2017-06-28T04:19:01.189Z,989.67
2017-06-28T04:19:41.643Z,989.68
2017-06-28T04:20:22.097Z,989.66
2017-06-28T04:21:02.546Z,989.66
2017-06-28T04:21:43.017Z,989.64
2017-06-28T04:24:01.145Z,989.68
2017-06-28T04:24:41.608Z,989.67
2017-06-28T04:25:22.089Z,989.66
2017-06-28T04:26:02.536Z,989.66
2017-06-28T04:26:42.979Z,989.65
2017-06-28T04:27:23.411Z,989.63
2017-06-28T04:28:03.834Z,989.69
2017-06-28T04:28:44.311Z,989.69
2017-06-28T04:29:24.735Z,989.69
2017-06-28T04:30:05.191Z,989.7
2017-06-28T04:30:45.651Z,989.68
2017-06-28T04:31:26.111Z,989.7
2017-06-28T04:32:06.563Z,989.7
2017-06-28T04:32:47.007Z,989.71
2017-06-28T04:33:27.432Z,989.68
2017-06-28T04:34:07.938Z,989.7
2017-06-28T04:36:26.040Z,989.68
2017-06-28T04:37:06.498Z,989.65
2017-06-28T04:37:46.967Z,989.68
2017-06-28T04:38:27.403Z,989.7
2017-06-28T04:39:07.837Z,989.67
2017-06-28T04:39:48.350Z,989.71
2017-06-28T04:40:28.911Z,989.71
2017-06-28T04:41:09.399Z,989.68
2017-06-28T04:41:49.836Z,989.71
2017-06-28T04:42:30.282Z,989.71
2017-06-28T04:43:10.737Z,989.67
2017-06-28T04:43:51.153Z,989.67
2017-06-28T04:44:31.635Z,989.69
2017-06-28T04:46:29.562Z,989.65
2017-06-28T04:47:10.042Z,989.7
2017-06-28T04:47:50.491Z,989.59
2017-06-28T04:50:08.305Z,989.54
2017-06-28T04:50:48.742Z,989.48
2017-06-28T04:51:30.119Z,989.52
2017-06-28T04:52:10.539Z,989.51
2017-06-28T04:52:50.976Z,989.51
2017-06-28T04:53:31.455Z,989.46
2017-06-28T04:54:11.925Z,989.52
2017-06-28T04:54:52.419Z,989.52
2017-06-28T04:55:32.882Z,989.52
2017-06-28T04:56:13.361Z,989.49
2017-06-28T04:56:53.842Z,989.52
2017-06-28T04:57:34.313Z,989.49
2017-06-28T04:58:14.762Z,989.48
2017-06-28T04:58:55.208Z,989.51
2017-06-28T04:59:35.677Z,989.52
2017-06-28T05:00:16.138Z,989.53
2017-06-28T05:00:56.570Z,989.53
2017-06-28T05:01:37.008Z,989.48
2017-06-28T05:02:17.445Z,989.51
2017-06-28T05:02:57.893Z,989.48
2017-06-28T05:05:10.615Z,989.45
2017-06-28T05:05:51.071Z,989.45
2017-06-28T05:06:31.538Z,989.46
2017-06-28T05:07:12.013Z,989.46
2017-06-28T05:07:52.479Z,989.47
2017-06-28T05:08:32.962Z,989.47
2017-06-28T05:09:13.373Z,989.45
2017-06-28T05:09:53.842Z,989.49
2017-06-28T05:10:34.309Z,989.45
2017-06-28T05:11:14.756Z,989.42
2017-06-28T05:11:55.229Z,989.4
2017-06-28T05:12:35.654Z,989.43
2017-06-28T05:13:16.134Z,989.45
2017-06-28T05:13:56.573Z,989.43
2017-06-28T05:16:14.449Z,989.43
2017-06-28T05:16:54.851Z,989.45
2017-06-28T05:17:35.307Z,989.46
2017-06-28T05:18:15.769Z,989.48
2017-06-28T05:18:56.298Z,989.46
2017-06-28T05:19:36.739Z,989.47
2017-06-28T05:20:17.194Z,989.51
2017-06-28T05:20:57.626Z,989.52
2017-06-28T05:22:50.240Z,989.5
2017-06-28T05:23:30.709Z,989.48
2017-06-28T05:24:11.182Z,989.54
2017-06-28T05:24:51.666Z,989.51
2017-06-28T05:25:32.148Z,989.55
2017-06-28T05:26:12.640Z,989.53
2017-06-28T05:26:53.109Z,989.52
2017-06-28T05:27:33.601Z,989.5
2017-06-28T05:28:14.081Z,989.51
2017-06-28T05:28:54.583Z,989.55
2017-06-28T05:29:35.017Z,989.56
2017-06-28T05:31:47.717Z,989.6
2017-06-28T05:32:28.176Z,989.58
2017-06-28T05:33:08.644Z,989.56
2017-06-28T05:33:49.125Z,989.6
2017-06-28T05:34:29.598Z,989.6
2017-06-28T05:35:10.070Z,989.6
2017-06-28T05:35:50.540Z,989.62
2017-06-28T05:36:30.992Z,989.62
2017-06-28T05:37:11.468Z,989.61
2017-06-28T05:37:51.929Z,989.65
2017-06-28T05:38:32.408Z,989.63
2017-06-28T05:39:12.859Z,989.66
2017-06-28T05:39:53.331Z,989.64
2017-06-28T05:41:51.000Z,989.61
2017-06-28T05:42:31.429Z,989.65
2017-06-28T05:43:11.920Z,989.68
2017-06-28T05:43:52.393Z,989.69
2017-06-28T05:44:32.855Z,989.66
2017-06-28T05:45:13.305Z,989.6
2017-06-28T05:45:53.764Z,989.61
2017-06-28T05:46:34.218Z,989.63
2017-06-28T05:48:47.064Z,989.52
2017-06-28T05:49:27.500Z,989.64
2017-06-28T05:50:08.021Z,989.6
2017-06-28T05:50:48.488Z,989.57
2017-06-28T05:51:28.991Z,989.61
2017-06-28T05:52:09.455Z,989.61
2017-06-28T05:52:49.923Z,989.58
2017-06-28T05:53:30.397Z,989.64
2017-06-28T05:54:10.885Z,989.64
2017-06-28T05:54:51.360Z,989.64
2017-06-28T05:56:48.982Z,989.71
2017-06-28T05:57:29.475Z,989.67
2017-06-28T05:58:10.024Z,989.66
2017-06-28T05:58:50.625Z,989.69
2017-06-28T05:59:31.118Z,989.66
2017-06-28T06:00:11.636Z,989.72
2017-06-28T06:00:52.132Z,989.68
2017-06-28T06:01:32.593Z,989.72
2017-06-28T06:04:00.556Z,989.66
2017-06-28T06:04:41.001Z,989.6
2017-06-28T06:05:21.475Z,989.62
2017-06-28T06:06:01.892Z,989.65
2017-06-28T06:06:42.363Z,989.59
2017-06-28T06:07:22.818Z,989.63
2017-06-28T06:08:03.280Z,989.63
2017-06-28T06:08:43.738Z,989.63
2017-06-28T06:09:24.249Z,989.63
2017-06-28T06:10:04.660Z,989.66
2017-06-28T06:10:45.140Z,989.66
2017-06-28T06:11:25.639Z,989.65
2017-06-28T06:12:06.120Z,989.67
2017-06-28T06:12:46.585Z,989.65
2017-06-28T06:13:27.046Z,989.64
2017-06-28T06:15:54.974Z,989.57
2017-06-28T06:19:45.322Z,989.68
2017-06-28T06:20:25.778Z,989.65
2017-06-28T06:21:06.224Z,989.65
2017-06-28T06:21:46.666Z,989.69
2017-06-28T06:22:27.140Z,989.64
2017-06-28T06:23:07.591Z,989.62
2017-06-28T06:23:48.050Z,989.61
2017-06-28T06:24:28.501Z,989.64
2017-06-28T06:25:08.965Z,989.61
2017-06-28T06:25:49.438Z,989.62
2017-06-28T06:26:29.878Z,989.58
2017-06-28T06:27:10.339Z,989.55
2017-06-28T06:29:02.972Z,989.55
2017-06-28T06:29:43.409Z,989.55
2017-06-28T06:30:23.896Z,989.58
2017-06-28T06:31:04.340Z,989.59
2017-06-28T06:31:45.662Z,989.6
2017-06-28T06:32:26.169Z,989.61
2017-06-28T06:33:06.636Z,989.66
2017-06-28T06:33:47.060Z,989.62
2017-06-28T06:34:27.508Z,989.64
2017-06-28T06:35:08.826Z,989.63
2017-06-28T06:35:49.282Z,989.6
2017-06-28T06:36:29.705Z,989.6
2017-06-28T06:37:10.247Z,989.58
2017-06-28T06:37:50.730Z,989.62
2017-06-28T06:38:31.205Z,989.57
2017-06-28T06:39:11.659Z,989.6
2017-06-28T06:39:52.154Z,989.64
2017-06-28T06:40:32.589Z,989.64
2017-06-28T06:41:13.012Z,989.65
2017-06-28T06:41:53.498Z,989.68
2017-06-28T06:42:33.981Z,989.67
2017-06-28T06:43:14.494Z,989.69
2017-06-28T06:43:54.935Z,989.7
2017-06-28T06:46:10.423Z,989.74
2017-06-28T06:46:50.639Z,989.74
2017-06-28T06:47:31.050Z,989.74
2017-06-28T06:50:00.150Z,989.75
2017-06-28T06:50:40.414Z,989.74
2017-06-28T06:51:20.873Z,989.7
2017-06-28T06:52:01.521Z,989.7
2017-06-28T06:52:42.421Z,989.71
2017-06-28T06:53:22.832Z,989.71
2017-06-28T06:54:03.246Z,989.72
2017-06-28T06:54:43.681Z,989.73
2017-06-28T06:55:24.135Z,989.75
2017-06-28T06:57:17.230Z,989.71
2017-06-28T06:57:57.597Z,989.69
2017-06-28T06:58:38.044Z,989.7
2017-06-28T06:59:18.472Z,989.7
2017-06-28T06:59:58.981Z,989.67
2017-06-28T07:01:56.799Z,989.75
2017-06-28T07:02:37.180Z,989.78
2017-06-28T07:03:17.617Z,989.75
2017-06-28T07:03:58.081Z,989.78
2017-06-28T07:04:38.513Z,989.72
2017-06-28T07:06:36.152Z,989.74
2017-06-28T07:07:16.639Z,989.73
2017-06-28T07:09:44.992Z,989.76
2017-06-28T07:10:25.373Z,989.82
2017-06-28T07:12:18.341Z,989.85
2017-06-28T07:12:58.794Z,989.92
2017-06-28T07:13:39.278Z,990.04
2017-06-28T07:14:19.720Z,990.04
2017-06-28T07:15:00.278Z,989.95
2017-06-28T07:15:42.688Z,989.91
2017-06-28T07:16:23.369Z,989.84
2017-06-28T07:17:05.785Z,989.86
2017-06-28T07:17:46.505Z,989.97
2017-06-28T07:18:27.407Z,990.05
2017-06-28T07:19:08.755Z,990.14
2017-06-28T07:21:37.116Z,990.01
2017-06-28T07:22:17.574Z,990.05
2017-06-28T07:22:58.057Z,990.02
2017-06-28T07:23:38.543Z,990.04
2017-06-28T07:24:19.037Z,990.06
2017-06-28T07:24:59.595Z,990.09
2017-06-28T07:25:40.095Z,990.04
2017-06-28T07:26:20.591Z,990.09
2017-06-28T07:27:01.095Z,990.11
2017-06-28T07:27:41.558Z,990.08
2017-06-28T07:29:59.440Z,989.95
2017-06-28T07:30:39.924Z,989.95
2017-06-28T07:31:20.472Z,989.81
2017-06-28T07:32:00.972Z,989.87
2017-06-28T07:32:41.461Z,989.89
2017-06-28T07:33:21.964Z,989.9
2017-06-28T07:34:02.458Z,989.85
2017-06-28T07:34:42.932Z,989.84
2017-06-28T07:35:23.431Z,989.82
2017-06-28T07:36:03.891Z,989.78
2017-06-28T07:36:44.369Z,989.82
2017-06-28T07:37:24.865Z,989.83
2017-06-28T07:38:05.362Z,989.83
2017-06-28T07:38:45.859Z,989.76
2017-06-28T07:39:26.368Z,989.76
2017-06-28T07:40:06.817Z,989.78
2017-06-28T07:40:47.277Z,989.83
2017-06-28T07:41:27.794Z,989.94
2017-06-28T07:42:08.340Z,990.05
2017-06-28T07:42:48.828Z,990.01
2017-06-28T07:43:29.320Z,989.97
2017-06-28T07:45:47.154Z,989.82
2017-06-28T07:46:27.636Z,989.85
2017-06-28T07:47:08.127Z,990.06
2017-06-28T07:47:48.617Z,989.99
2017-06-28T07:48:29.118Z,989.98
2017-06-28T07:49:09.601Z,990.02
2017-06-28T07:49:50.084Z,990.18
2017-06-28T07:50:30.575Z,990.26
2017-06-28T07:51:11.085Z,990.29
2017-06-28T07:51:51.556Z,990.21
2017-06-28T07:54:09.358Z,989.96
2017-06-28T07:54:49.818Z,990.03
2017-06-28T07:55:30.317Z,990.06
2017-06-28T07:56:10.799Z,990.29
2017-06-28T07:56:51.292Z,990.48
2017-06-28T07:57:31.807Z,990.55
2017-06-28T07:58:12.351Z,990.45
2017-06-28T07:58:52.974Z,990.55
2017-06-28T07:59:33.455Z,990.34
2017-06-28T08:00:14.037Z,990.11
2017-06-28T08:00:54.673Z,990.07
2017-06-28T08:01:35.212Z,990.11
2017-06-28T08:02:16.345Z,990.12
2017-06-28T08:02:56.859Z,990.15
2017-06-28T08:03:37.378Z,990.18
2017-06-28T08:04:17.866Z,990.1
2017-06-28T08:04:58.342Z,990.02
2017-06-28T08:05:38.826Z,989.91
2017-06-28T08:08:07.342Z,989.97
2017-06-28T08:08:47.833Z,989.9
2017-06-28T08:09:28.331Z,989.9
2017-06-28T08:10:08.841Z,989.92
2017-06-28T08:10:49.351Z,989.87
2017-06-28T08:11:29.843Z,989.86
2017-06-28T08:12:10.405Z,989.86
2017-06-28T08:12:50.892Z,989.9
2017-06-28T08:13:31.377Z,989.95
2017-06-28T08:14:11.833Z,989.97
2017-06-28T08:14:52.294Z,989.91
2017-06-28T08:15:33.280Z,989.9
2017-06-28T08:16:13.806Z,990
2017-06-28T08:16:54.288Z,990.06
2017-06-28T08:17:34.760Z,989.98
2017-06-28T08:18:15.250Z,990.06
2017-06-28T08:18:55.764Z,990.07
2017-06-28T08:19:36.288Z,990.02
2017-06-28T08:20:16.756Z,990
2017-06-28T08:20:57.211Z,990.15
2017-06-28T08:21:37.644Z,990.15
2017-06-28T08:22:18.151Z,990.16
2017-06-28T08:22:58.632Z,990.24
2017-06-28T08:23:39.140Z,990.19
2017-06-28T08:24:19.584Z,990.21
2017-06-28T08:25:00.031Z,990.2
2017-06-28T08:25:40.494Z,990.19
2017-06-28T08:26:21.020Z,990.26
2017-06-28T08:28:18.679Z,990.27
2017-06-28T08:30:36.479Z,990.2
2017-06-28T08:31:16.925Z,990.13
2017-06-28T08:31:57.381Z,990.12
2017-06-28T08:33:55.116Z,990.15
2017-06-28T08:34:35.695Z,990.13
2017-06-28T08:35:16.120Z,990.16
2017-06-28T08:35:56.595Z,990.1
2017-06-28T08:36:37.086Z,990.11
2017-06-28T08:37:17.605Z,990.27
2017-06-28T08:37:58.358Z,990.19
2017-06-28T08:38:38.828Z,990.21
2017-06-28T08:39:20.248Z,990.17
2017-06-28T08:40:02.245Z,990.24
2017-06-28T08:40:42.917Z,990.18
2017-06-28T08:41:23.883Z,990.29
2017-06-28T08:42:05.009Z,990.36
2017-06-28T08:42:47.972Z,990.39
2017-06-28T08:43:29.153Z,990.33
2017-06-28T08:44:10.083Z,990.29
2017-06-28T08:46:23.050Z,990.4
2017-06-28T08:47:04.623Z,990.43
2017-06-28T08:47:45.115Z,990.47
2017-06-28T08:48:25.679Z,990.48
2017-06-28T08:49:06.155Z,990.41
2017-06-28T08:49:46.579Z,990.4
2017-06-28T08:50:27.053Z,990.3
2017-06-28T08:51:07.563Z,990.28
2017-06-28T08:51:48.073Z,990.39
2017-06-28T08:52:28.520Z,990.36
2017-06-28T08:53:09.030Z,990.37
2017-06-28T08:55:06.760Z,990.43
2017-06-28T08:55:49.038Z,990.47
2017-06-28T08:56:29.744Z,990.49
2017-06-28T08:57:10.408Z,990.57
2017-06-28T08:57:50.996Z,990.52
2017-06-28T08:58:31.425Z,990.49
2017-06-28T08:59:11.979Z,990.44
2017-06-28T08:59:52.650Z,990.48
2017-06-28T09:00:33.131Z,990.5
2017-06-28T09:01:13.566Z,990.43
2017-06-28T09:01:55.237Z,990.51
2017-06-28T09:02:35.766Z,990.52
2017-06-28T09:03:16.877Z,990.37
2017-06-28T09:03:57.329Z,990.2
2017-06-28T09:04:38.081Z,990.21
2017-06-28T09:05:18.556Z,990.24
2017-06-28T09:05:59.089Z,990.33
2017-06-28T09:06:39.965Z,990.37
2017-06-28T09:08:57.813Z,990.45
2017-06-28T09:09:38.263Z,990.43
2017-06-28T09:10:18.750Z,990.47
2017-06-28T09:10:59.249Z,990.5
2017-06-28T09:11:39.742Z,990.58
2017-06-28T09:12:20.241Z,990.58
2017-06-28T09:13:00.743Z,990.62
2017-06-28T09:13:41.195Z,990.63
2017-06-28T09:14:21.729Z,990.67
2017-06-28T09:16:49.651Z,990.46
2017-06-28T09:17:30.164Z,990.54
2017-06-28T09:18:10.648Z,990.59
2017-06-28T09:18:51.167Z,990.54
2017-06-28T09:19:31.634Z,990.53
2017-06-28T09:20:12.100Z,990.58
2017-06-28T09:20:52.565Z,990.5
2017-06-28T09:21:33.715Z,990.45
2017-06-28T09:22:14.185Z,990.45
2017-06-28T09:22:54.722Z,990.48
2017-06-28T09:23:35.205Z,990.48
2017-06-28T09:25:53.078Z,990.55
2017-06-28T09:26:33.553Z,990.52
2017-06-28T09:27:14.096Z,990.55
2017-06-28T09:27:54.703Z,990.47
2017-06-28T09:28:35.233Z,990.35
2017-06-28T09:29:15.765Z,990.25
2017-06-28T09:29:56.342Z,990.1
2017-06-28T09:30:36.981Z,990.1
2017-06-28T09:31:17.598Z,990.14
2017-06-28T09:31:58.123Z,990.24
2017-06-28T09:32:38.606Z,990.33
2017-06-28T09:34:36.310Z,990.1
2017-06-28T09:35:16.783Z,990.18
2017-06-28T09:35:57.297Z,990.22
2017-06-28T09:36:37.795Z,990.19
2017-06-28T09:37:18.247Z,990.13
2017-06-28T09:37:58.702Z,990.1
2017-06-28T09:38:39.138Z,989.96
2017-06-28T09:39:20.326Z,989.9
2017-06-28T09:40:00.811Z,989.92
2017-06-28T09:40:41.333Z,989.82
2017-06-28T09:41:21.834Z,990.04
2017-06-28T09:42:02.309Z,990.17
2017-06-28T09:42:42.863Z,990.21
2017-06-28T09:43:23.323Z,990.65
2017-06-28T09:44:04.763Z,990.66
2017-06-28T09:44:45.276Z,990.3
2017-06-28T09:45:25.783Z,990.25